createdAt,value
2023-03-28T03:22:45.321Z,2.45
2023-03-28T07:41:19.977Z,5.70
2023-03-28T08:55:37.161Z,7.31
2023-03-28T11:28:06.570Z,9.61
2023-03-28T11:41:27.550Z,10.70
2023-03-28T11:44:10.072Z,10.58
2023-03-28T11:46:45.494Z,10.21
2023-03-28T11:49:37.097Z,9.71
2023-03-28T12:00:32.759Z,10.02
2023-03-28T12:10:38.924Z,10.42
2023-03-28T12:13:14.222Z,10.60
2023-03-28T12:15:48.979Z,11.38
2023-03-28T12:18:34.561Z,10.89
2023-03-28T12:21:16.239Z,11.08
2023-03-28T12:24:00.006Z,10.20
2023-03-28T12:26:39.794Z,10.23
2023-03-28T12:32:27.427Z,10.32
2023-03-28T12:35:06.328Z,10.40
2023-03-28T12:40:56.507Z,9.81
2023-03-28T12:59:19.857Z,10.25
2023-03-28T13:01:57.125Z,10.45
2023-03-28T13:04:52.508Z,10.61
2023-03-28T13:07:43.864Z,10.79
2023-03-28T13:10:47.624Z,11.31
2023-03-28T13:19:05.797Z,11.17
2023-03-28T15:19:25.250Z,11.78
2023-03-28T15:22:04.320Z,13.43
2023-03-28T15:24:39.938Z,12.57
2023-03-28T15:27:30.451Z,14.61
2023-03-28T15:30:20.589Z,15.04
2023-03-28T15:32:58.251Z,14.15
2023-03-28T15:35:35.101Z,14.04
2023-03-28T15:38:20.176Z,16.36
2023-03-28T15:41:00.978Z,15.04
2023-03-28T15:43:45.232Z,13.77
2023-03-28T15:46:23.626Z,12.19
2023-03-28T15:48:59.854Z,11.71
2023-03-28T15:51:38.232Z,11.47
2023-03-28T15:54:28.217Z,11.45
2023-03-28T15:57:15.838Z,10.90
2023-03-28T15:59:59.062Z,10.55
2023-03-28T16:02:38.947Z,10.68
2023-03-28T16:05:37.652Z,11.00
2023-03-28T16:08:23.876Z,11.25
2023-03-28T16:11:06.510Z,11.14
2023-03-28T16:13:40.313Z,11.34
2023-03-28T16:16:34.765Z,10.97
2023-03-28T16:19:39.490Z,11.14
2023-03-28T16:22:20.559Z,11.14
2023-03-28T16:24:58.297Z,11.14
2023-03-28T16:28:06.265Z,10.97
2023-03-28T16:30:37.556Z,10.77
2023-03-28T16:33:06.932Z,10.56
2023-03-28T16:35:35.807Z,10.42
2023-03-28T16:38:06.989Z,10.53
2023-03-28T16:40:37.091Z,10.16
2023-03-28T16:43:05.721Z,10.12
2023-03-28T16:45:34.353Z,10.30
2023-03-28T16:48:06.482Z,10.29
2023-03-28T16:50:35.041Z,10.07
2023-03-28T16:53:04.219Z,10.00
2023-03-28T16:55:34.383Z,9.77
2023-03-28T16:58:06.638Z,9.83
2023-03-28T17:00:35.418Z,9.94
2023-03-28T17:03:05.268Z,9.71
2023-03-28T17:05:33.735Z,9.78
2023-03-28T17:08:02.369Z,9.60
2023-03-28T17:10:30.968Z,9.60
2023-03-28T17:13:02.652Z,9.68
2023-03-28T17:15:35.056Z,9.53
2023-03-28T17:18:06.064Z,9.51
2023-03-28T17:20:35.628Z,9.50
2023-03-28T17:23:08.512Z,9.33
2023-03-28T17:25:48.105Z,9.20
2023-03-28T17:28:21.913Z,9.42
2023-03-28T17:31:00.204Z,9.36
2023-03-28T17:33:31.395Z,9.19
2023-03-28T17:36:04.522Z,9.00
2023-03-28T17:41:19.560Z,8.95
2023-03-28T17:52:17.822Z,9.28
2023-03-28T17:54:48.318Z,9.16
2023-03-28T17:57:18.600Z,9.19
2023-03-28T17:59:47.215Z,9.14
2023-03-28T18:02:16.766Z,9.27
2023-03-28T18:04:45.692Z,9.30
2023-03-28T18:07:15.902Z,9.36
2023-03-28T18:09:55.785Z,9.46
2023-03-28T18:12:24.315Z,9.25
2023-03-28T18:14:52.726Z,9.09
2023-03-28T18:17:23.037Z,9.22
2023-03-28T18:20:04.129Z,8.98
2023-03-28T18:22:35.253Z,9.17
2023-03-28T18:25:07.134Z,9.05
2023-03-28T18:27:43.785Z,9.08
2023-03-28T18:32:56.918Z,9.34
2023-03-28T18:35:25.476Z,9.19
2023-03-28T18:37:54.073Z,9.24
2023-03-28T18:40:23.924Z,9.04
2023-03-28T18:42:57.937Z,9.33
2023-03-28T18:45:29.513Z,8.88
2023-03-28T18:48:05.819Z,9.02
2023-03-28T18:50:34.707Z,9.25
2023-03-28T18:53:05.335Z,9.13
2023-03-28T18:55:35.546Z,9.10
2023-03-28T18:58:10.507Z,9.21
2023-03-28T19:00:40.748Z,9.16
2023-03-28T19:03:10.850Z,9.05
2023-03-28T19:05:42.455Z,9.10
2023-03-28T19:08:11.258Z,9.17
2023-03-28T19:10:46.451Z,9.12
2023-03-28T19:13:22.456Z,9.11
2023-03-28T19:24:59.525Z,9.08
2023-03-28T19:27:29.434Z,9.08
2023-03-28T19:30:00.106Z,8.77
2023-03-28T19:32:43.813Z,8.88
2023-03-28T19:35:20.336Z,8.57
2023-03-28T19:37:56.365Z,8.94
2023-03-28T19:40:27.153Z,9.05
2023-03-28T19:42:59.811Z,8.95
2023-03-28T19:45:42.933Z,8.59
2023-03-28T19:48:23.312Z,8.92
2023-03-28T19:51:13.536Z,8.95
2023-03-28T19:53:43.077Z,8.96
2023-03-28T19:56:15.004Z,9.16
2023-03-28T19:58:49.031Z,8.96
2023-03-28T20:01:20.771Z,8.76
2023-03-28T20:03:53.440Z,9.01
2023-03-28T20:06:23.729Z,8.55
2023-03-28T20:08:53.332Z,8.90
2023-03-28T20:11:22.734Z,8.98
2023-03-28T20:13:59.562Z,8.62
2023-03-28T20:16:29.707Z,8.87
2023-03-28T20:19:01.243Z,8.81
2023-03-28T20:21:31.389Z,8.66
2023-03-28T20:24:00.749Z,8.70
2023-03-28T20:26:31.303Z,8.68
2023-03-28T20:29:04.769Z,8.86
2023-03-28T20:34:21.386Z,9.02
2023-03-28T20:36:51.166Z,8.36
2023-03-28T20:39:20.530Z,8.71
2023-03-28T20:41:54.793Z,8.67
2023-03-28T20:44:33.160Z,8.94
2023-03-28T20:47:06.781Z,8.93
2023-03-28T20:49:36.221Z,8.84
2023-03-28T20:52:06.569Z,8.67
2023-03-28T20:54:37.738Z,8.93
2023-03-28T20:57:16.995Z,9.04
2023-03-28T20:59:49.129Z,9.10
2023-03-28T21:02:24.605Z,9.12
2023-03-28T21:04:56.324Z,9.14
2023-03-28T21:07:35.299Z,9.27
2023-03-28T21:10:04.272Z,9.42
2023-03-28T21:12:39.105Z,9.35
2023-03-28T21:15:15.698Z,9.28
2023-03-28T21:17:44.530Z,9.34
2023-03-28T21:20:13.914Z,9.19
2023-03-28T21:22:45.826Z,9.22
2023-03-28T21:25:15.764Z,9.06
2023-03-28T21:27:45.271Z,8.76
2023-03-28T21:30:18.313Z,9.02
2023-03-28T21:32:49.022Z,9.01
2023-03-28T21:35:21.817Z,9.18
2023-03-28T21:37:57.370Z,8.66
2023-03-28T21:40:28.513Z,9.05
2023-03-28T22:04:09.044Z,8.85
2023-03-28T22:06:56.395Z,8.48
2023-03-28T22:09:39.529Z,9.00
2023-03-28T22:12:10.324Z,8.92
2023-03-28T22:14:55.597Z,8.70
2023-03-28T22:17:39.165Z,8.78
2023-03-28T22:23:22.001Z,8.92
2023-03-28T22:31:52.910Z,8.53
2023-03-28T22:34:27.328Z,8.23
2023-03-28T22:36:57.622Z,8.39
2023-03-28T22:39:28.508Z,8.08
2023-03-28T22:42:08.786Z,8.28
2023-03-28T22:44:45.074Z,7.94
2023-03-28T22:47:14.998Z,8.50
2023-03-28T22:49:46.048Z,8.08
2023-03-28T22:52:17.348Z,8.48
2023-03-28T22:54:47.750Z,8.18
2023-03-28T22:57:16.598Z,8.25
2023-03-28T22:59:50.517Z,8.49
2023-03-28T23:02:19.833Z,7.96
2023-03-28T23:04:47.985Z,7.77
2023-03-28T23:07:16.599Z,8.34
2023-03-28T23:09:50.150Z,8.54
2023-03-28T23:12:20.031Z,8.29
2023-03-28T23:14:53.749Z,8.38
2023-03-28T23:17:23.093Z,8.38
2023-03-28T23:19:53.500Z,8.19
2023-03-28T23:22:25.500Z,8.55
2023-03-28T23:25:00.126Z,8.61
2023-03-28T23:27:28.782Z,8.27
2023-03-28T23:29:57.911Z,8.58
2023-03-28T23:32:28.751Z,8.53
2023-03-28T23:34:59.063Z,8.37
2023-03-28T23:37:42.209Z,8.43
2023-03-28T23:40:15.904Z,8.15
2023-03-28T23:42:45.856Z,8.11
2023-03-28T23:45:17.578Z,8.64
2023-03-28T23:47:47.654Z,8.40
2023-03-28T23:50:18.936Z,8.23
2023-03-28T23:52:51.861Z,8.47
2023-03-28T23:55:24.281Z,8.11
2023-03-28T23:57:54.479Z,8.29
